Terminal Aerodrome Forecast
Issued by NWS

Home | Current Version | Previous Version | Graphics & Text | Print | Product List | Glossary On
Versions: 1 2 3 4 5 6 7 8 9 10 11 12 13 14 15 16 17 18 19 20 21 22 23 24 25 26 27 28 29 30 31
000
FTUS45 KGGW 151700
TAFOLF
TAF
KOLF 151728Z 1518/1618 34009KT P6SM OVC019
     FM152100 VRB05KT P6SM SCT020
     FM160400 VRB03KT P6SM OVC008
     FM161300 09006KT 4SM BR BKN008=

USA.gov is the U.S. government's official web portal to all federal, state and local government web resources and services.